sensor_id;sensor_type;location;lat;lon;timestamp;temperature;humidity
25332;DHT22;13284;52.748;13.452;2024-01-25T00:00:03;8.10;99.90
25332;DHT22;13284;52.748;13.452;2024-01-25T00:02:28;8.10;99.90
25332;DHT22;13284;52.748;13.452;2024-01-25T00:04:54;8.20;99.90
25332;DHT22;13284;52.748;13.452;2024-01-25T00:07:19;8.10;99.90
25332;DHT22;13284;52.748;13.452;2024-01-25T00:09:45;8.10;99.90
25332;DHT22;13284;52.748;13.452;2024-01-25T00:12:10;8.20;99.90
25332;DHT22;13284;52.748;13.452;2024-01-25T00:14:36;8.10;99.90
25332;DHT22;13284;52.748;13.452;2024-01-25T00:17:02;8.20;99.90
25332;DHT22;13284;52.748;13.452;2024-01-25T00:19:27;8.20;99.90
25332;DHT22;13284;52.748;13.452;2024-01-25T00:21:53;8.20;99.90
25332;DHT22;13284;52.748;13.452;2024-01-25T00:24:18;8.20;99.90
25332;DHT22;13284;52.748;13.452;2024-01-25T00:26:44;8.10;99.90
25332;DHT22;13284;52.748;13.452;2024-01-25T00:29:09;8.10;99.90
25332;DHT22;13284;52.748;13.452;2024-01-25T00:31:35;8.10;99.90
25332;DHT22;13284;52.748;13.452;2024-01-25T00:34:01;8.10;99.90
25332;DHT22;13284;52.748;13.452;2024-01-25T00:36:27;8.00;99.90
25332;DHT22;13284;52.748;13.452;2024-01-25T00:38:53;8.10;99.90
25332;DHT22;13284;52.748;13.452;2024-01-25T00:41:19;8.00;99.90
25332;DHT22;13284;52.748;13.452;2024-01-25T00:43:45;8.00;99.90
25332;DHT22;13284;52.748;13.452;2024-01-25T00:46:11;8.00;99.90
25332;DHT22;13284;52.748;13.452;2024-01-25T00:48:37;8.00;99.90
25332;DHT22;13284;52.748;13.452;2024-01-25T00:51:06;8.10;99.90
25332;DHT22;13284;52.748;13.452;2024-01-25T00:53:32;8.10;99.90
25332;DHT22;13284;52.748;13.452;2024-01-25T00:55:58;8.10;99.90
25332;DHT22;13284;52.748;13.452;2024-01-25T00:58:24;8.10;99.90
25332;DHT22;13284;52.748;13.452;2024-01-25T01:00:50;8.10;99.90
25332;DHT22;13284;52.748;13.452;2024-01-25T01:03:18;8.10;99.90
25332;DHT22;13284;52.748;13.452;2024-01-25T01:05:44;8.00;99.90
25332;DHT22;13284;52.748;13.452;2024-01-25T01:08:10;8.10;99.90
25332;DHT22;13284;52.748;13.452;2024-01-25T01:10:36;8.00;99.90
25332;DHT22;13284;52.748;13.452;2024-01-25T01:13:01;8.10;99.90
25332;DHT22;13284;52.748;13.452;2024-01-25T01:15:27;8.10;99.90
25332;DHT22;13284;52.748;13.452;2024-01-25T01:17:52;8.10;99.90
25332;DHT22;13284;52.748;13.452;2024-01-25T01:20:18;8.10;99.90
25332;DHT22;13284;52.748;13.452;2024-01-25T01:22:44;8.10;99.90
25332;DHT22;13284;52.748;13.452;2024-01-25T01:25:10;8.10;99.90
25332;DHT22;13284;52.748;13.452;2024-01-25T01:27:35;8.10;99.90
25332;DHT22;13284;52.748;13.452;2024-01-25T01:30:01;8.10;99.90
25332;DHT22;13284;52.748;13.452;2024-01-25T01:32:27;8.20;99.90
25332;DHT22;13284;52.748;13.452;2024-01-25T01:34:52;8.20;99.90
25332;DHT22;13284;52.748;13.452;2024-01-25T01:37:18;8.20;99.90
25332;DHT22;13284;52.748;13.452;2024-01-25T01:39:43;8.20;99.90
25332;DHT22;13284;52.748;13.452;2024-01-25T01:42:09;8.10;99.90
25332;DHT22;13284;52.748;13.452;2024-01-25T01:44:34;8.20;99.90
25332;DHT22;13284;52.748;13.452;2024-01-25T01:47:00;8.10;99.90
25332;DHT22;13284;52.748;13.452;2024-01-25T01:49:26;8.20;99.90
25332;DHT22;13284;52.748;13.452;2024-01-25T01:51:52;8.20;99.90
25332;DHT22;13284;52.748;13.452;2024-01-25T01:54:18;8.10;99.90
25332;DHT22;13284;52.748;13.452;2024-01-25T01:56:44;8.10;99.90
25332;DHT22;13284;52.748;13.452;2024-01-25T01:59:10;8.20;99.90
25332;DHT22;13284;52.748;13.452;2024-01-25T02:01:37;8.10;99.90
25332;DHT22;13284;52.748;13.452;2024-01-25T02:04:03;8.10;99.90
25332;DHT22;13284;52.748;13.452;2024-01-25T02:06:29;8.10;99.90
25332;DHT22;13284;52.748;13.452;2024-01-25T02:08:55;8.10;99.90
25332;DHT22;13284;52.748;13.452;2024-01-25T02:11:24;8.10;99.90
25332;DHT22;13284;52.748;13.452;2024-01-25T02:13:49;8.10;99.90
25332;DHT22;13284;52.748;13.452;2024-01-25T02:16:15;8.10;99.90
25332;DHT22;13284;52.748;13.452;2024-01-25T02:18:41;8.00;99.90
25332;DHT22;13284;52.748;13.452;2024-01-25T02:21:07;8.00;99.90
25332;DHT22;13284;52.748;13.452;2024-01-25T02:23:33;8.00;99.90
25332;DHT22;13284;52.748;13.452;2024-01-25T02:25:58;8.00;99.90
25332;DHT22;13284;52.748;13.452;2024-01-25T02:28:24;8.00;99.90
25332;DHT22;13284;52.748;13.452;2024-01-25T02:30:50;8.00;99.90
25332;DHT22;13284;52.748;13.452;2024-01-25T02:33:15;8.00;99.90
25332;DHT22;13284;52.748;13.452;2024-01-25T02:35:41;7.90;99.90
25332;DHT22;13284;52.748;13.452;2024-01-25T02:38:07;7.90;99.90
25332;DHT22;13284;52.748;13.452;2024-01-25T02:40:32;7.90;99.90
25332;DHT22;13284;52.748;13.452;2024-01-25T02:42:58;7.90;99.90
25332;DHT22;13284;52.748;13.452;2024-01-25T02:45:23;7.90;99.90
25332;DHT22;13284;52.748;13.452;2024-01-25T02:47:49;7.90;99.90
25332;DHT22;13284;52.748;13.452;2024-01-25T02:50:18;7.90;99.90
25332;DHT22;13284;52.748;13.452;2024-01-25T02:52:44;7.90;99.90
25332;DHT22;13284;52.748;13.452;2024-01-25T02:55:12;7.90;99.90
25332;DHT22;13284;52.748;13.452;2024-01-25T02:57:38;7.90;99.90
25332;DHT22;13284;52.748;13.452;2024-01-25T03:00:04;7.90;99.90
25332;DHT22;13284;52.748;13.452;2024-01-25T03:02:29;7.90;99.90
25332;DHT22;13284;52.748;13.452;2024-01-25T03:04:55;7.90;99.90
25332;DHT22;13284;52.748;13.452;2024-01-25T03:07:21;7.90;99.90
25332;DHT22;13284;52.748;13.452;2024-01-25T03:09:46;7.80;99.90
25332;DHT22;13284;52.748;13.452;2024-01-25T03:12:11;7.80;99.90
25332;DHT22;13284;52.748;13.452;2024-01-25T03:14:37;7.80;99.90
25332;DHT22;13284;52.748;13.452;2024-01-25T03:17:03;7.80;99.90
25332;DHT22;13284;52.748;13.452;2024-01-25T03:19:28;7.90;99.90
25332;DHT22;13284;52.748;13.452;2024-01-25T03:21:54;7.80;99.90
25332;DHT22;13284;52.748;13.452;2024-01-25T03:24:20;7.80;99.90
25332;DHT22;13284;52.748;13.452;2024-01-25T03:26:46;7.80;99.90
25332;DHT22;13284;52.748;13.452;2024-01-25T03:29:12;7.80;99.90
25332;DHT22;13284;52.748;13.452;2024-01-25T03:31:40;7.80;99.90
25332;DHT22;13284;52.748;13.452;2024-01-25T03:34:05;7.80;99.90
25332;DHT22;13284;52.748;13.452;2024-01-25T03:36:31;7.80;99.90
25332;DHT22;13284;52.748;13.452;2024-01-25T03:39:00;7.80;99.90
25332;DHT22;13284;52.748;13.452;2024-01-25T03:41:28;7.80;99.90
25332;DHT22;13284;52.748;13.452;2024-01-25T03:43:54;7.80;99.90
25332;DHT22;13284;52.748;13.452;2024-01-25T03:46:20;7.80;99.90
25332;DHT22;13284;52.748;13.452;2024-01-25T03:48:45;7.80;99.90
25332;DHT22;13284;52.748;13.452;2024-01-25T03:51:11;7.80;99.90
25332;DHT22;13284;52.748;13.452;2024-01-25T03:53:37;7.80;99.90
25332;DHT22;13284;52.748;13.452;2024-01-25T03:56:02;7.80;99.90
25332;DHT22;13284;52.748;13.452;2024-01-25T03:58:28;7.80;99.90
25332;DHT22;13284;52.748;13.452;2024-01-25T04:00:54;7.80;99.90
25332;DHT22;13284;52.748;13.452;2024-01-25T04:03:19;7.80;99.90
25332;DHT22;13284;52.748;13.452;2024-01-25T04:05:45;7.80;99.90
25332;DHT22;13284;52.748;13.452;2024-01-25T04:08:10;7.80;99.90
25332;DHT22;13284;52.748;13.452;2024-01-25T04:10:36;7.70;99.90
25332;DHT22;13284;52.748;13.452;2024-01-25T04:13:01;7.70;99.90
25332;DHT22;13284;52.748;13.452;2024-01-25T04:15:29;7.70;99.90
25332;DHT22;13284;52.748;13.452;2024-01-25T04:17:57;7.80;99.90
25332;DHT22;13284;52.748;13.452;2024-01-25T04:20:22;7.80;99.90
25332;DHT22;13284;52.748;13.452;2024-01-25T04:22:48;7.80;99.90
25332;DHT22;13284;52.748;13.452;2024-01-25T04:25:14;7.80;99.90
25332;DHT22;13284;52.748;13.452;2024-01-25T04:27:39;7.70;99.90
25332;DHT22;13284;52.748;13.452;2024-01-25T04:30:06;7.80;99.90
25332;DHT22;13284;52.748;13.452;2024-01-25T04:32:32;7.70;99.90
25332;DHT22;13284;52.748;13.452;2024-01-25T04:34:57;7.70;99.90
25332;DHT22;13284;52.748;13.452;2024-01-25T04:37:23;7.70;99.90
25332;DHT22;13284;52.748;13.452;2024-01-25T04:39:48;7.70;99.90
25332;DHT22;13284;52.748;13.452;2024-01-25T04:42:14;7.70;99.90
25332;DHT22;13284;52.748;13.452;2024-01-25T04:44:39;7.70;99.90
25332;DHT22;13284;52.748;13.452;2024-01-25T04:47:05;7.70;99.90
25332;DHT22;13284;52.748;13.452;2024-01-25T04:49:31;7.70;99.90
25332;DHT22;13284;52.748;13.452;2024-01-25T04:51:56;7.70;99.90
25332;DHT22;13284;52.748;13.452;2024-01-25T04:54:22;7.70;99.90
25332;DHT22;13284;52.748;13.452;2024-01-25T04:56:47;7.70;99.90
25332;DHT22;13284;52.748;13.452;2024-01-25T04:59:12;7.70;99.90
25332;DHT22;13284;52.748;13.452;2024-01-25T05:01:38;7.70;99.90
25332;DHT22;13284;52.748;13.452;2024-01-25T05:04:03;7.60;99.90
25332;DHT22;13284;52.748;13.452;2024-01-25T05:06:32;7.60;99.90
25332;DHT22;13284;52.748;13.452;2024-01-25T05:08:57;7.60;99.90
25332;DHT22;13284;52.748;13.452;2024-01-25T05:11:23;7.60;99.90
25332;DHT22;13284;52.748;13.452;2024-01-25T05:13:48;7.60;99.90
25332;DHT22;13284;52.748;13.452;2024-01-25T05:16:14;7.60;99.90
25332;DHT22;13284;52.748;13.452;2024-01-25T05:18:39;7.60;99.90
25332;DHT22;13284;52.748;13.452;2024-01-25T05:21:05;7.60;99.90
25332;DHT22;13284;52.748;13.452;2024-01-25T05:23:33;7.70;99.90
25332;DHT22;13284;52.748;13.452;2024-01-25T05:25:59;7.70;99.90
25332;DHT22;13284;52.748;13.452;2024-01-25T05:28:24;7.70;99.90
25332;DHT22;13284;52.748;13.452;2024-01-25T05:30:50;7.60;99.90
25332;DHT22;13284;52.748;13.452;2024-01-25T05:33:16;7.70;99.90
25332;DHT22;13284;52.748;13.452;2024-01-25T05:35:41;7.70;99.90
25332;DHT22;13284;52.748;13.452;2024-01-25T05:38:07;7.70;99.90
25332;DHT22;13284;52.748;13.452;2024-01-25T05:40:32;7.70;99.90
25332;DHT22;13284;52.748;13.452;2024-01-25T05:42:58;7.70;99.90
25332;DHT22;13284;52.748;13.452;2024-01-25T05:45:24;7.70;99.90
25332;DHT22;13284;52.748;13.452;2024-01-25T05:47:50;7.70;99.90
25332;DHT22;13284;52.748;13.452;2024-01-25T05:50:15;7.70;99.90
25332;DHT22;13284;52.748;13.452;2024-01-25T05:52:41;7.70;99.90
25332;DHT22;13284;52.748;13.452;2024-01-25T05:55:07;7.70;99.90
25332;DHT22;13284;52.748;13.452;2024-01-25T05:57:35;7.70;99.90
25332;DHT22;13284;52.748;13.452;2024-01-25T06:00:01;7.70;99.90
25332;DHT22;13284;52.748;13.452;2024-01-25T06:02:26;7.60;99.90
25332;DHT22;13284;52.748;13.452;2024-01-25T06:04:52;7.70;99.90
25332;DHT22;13284;52.748;13.452;2024-01-25T06:07:17;7.70;99.90
25332;DHT22;13284;52.748;13.452;2024-01-25T06:09:43;7.70;99.90
25332;DHT22;13284;52.748;13.452;2024-01-25T06:12:09;7.60;99.90
25332;DHT22;13284;52.748;13.452;2024-01-25T06:14:35;7.70;99.90
25332;DHT22;13284;52.748;13.452;2024-01-25T06:17:03;7.70;99.90
25332;DHT22;13284;52.748;13.452;2024-01-25T06:19:35;7.70;99.90
25332;DHT22;13284;52.748;13.452;2024-01-25T06:22:01;7.70;99.90
25332;DHT22;13284;52.748;13.452;2024-01-25T06:24:37;7.70;99.90
25332;DHT22;13284;52.748;13.452;2024-01-25T06:27:03;7.70;99.90
25332;DHT22;13284;52.748;13.452;2024-01-25T06:29:29;7.70;99.90
25332;DHT22;13284;52.748;13.452;2024-01-25T06:31:55;7.70;99.90
25332;DHT22;13284;52.748;13.452;2024-01-25T06:34:21;7.70;99.90
25332;DHT22;13284;52.748;13.452;2024-01-25T06:36:47;7.70;99.90
25332;DHT22;13284;52.748;13.452;2024-01-25T06:39:12;7.70;99.90
25332;DHT22;13284;52.748;13.452;2024-01-25T06:41:38;7.70;99.90
25332;DHT22;13284;52.748;13.452;2024-01-25T06:44:04;7.70;99.90
25332;DHT22;13284;52.748;13.452;2024-01-25T06:46:30;7.70;99.90
25332;DHT22;13284;52.748;13.452;2024-01-25T06:48:56;7.70;99.90
25332;DHT22;13284;52.748;13.452;2024-01-25T06:51:22;7.70;99.90
25332;DHT22;13284;52.748;13.452;2024-01-25T06:53:58;7.70;99.90
25332;DHT22;13284;52.748;13.452;2024-01-25T06:56:31;7.60;99.90
25332;DHT22;13284;52.748;13.452;2024-01-25T06:58:57;7.70;99.90
25332;DHT22;13284;52.748;13.452;2024-01-25T07:01:24;7.70;99.90
25332;DHT22;13284;52.748;13.452;2024-01-25T07:03:50;7.70;99.90
25332;DHT22;13284;52.748;13.452;2024-01-25T07:06:19;7.70;99.90
25332;DHT22;13284;52.748;13.452;2024-01-25T07:08:46;7.60;99.90
25332;DHT22;13284;52.748;13.452;2024-01-25T07:11:12;7.60;99.90
25332;DHT22;13284;52.748;13.452;2024-01-25T07:13:38;7.60;99.90
25332;DHT22;13284;52.748;13.452;2024-01-25T07:16:04;7.60;99.90
25332;DHT22;13284;52.748;13.452;2024-01-25T07:18:30;7.60;99.90
25332;DHT22;13284;52.748;13.452;2024-01-25T07:20:56;7.60;99.90
25332;DHT22;13284;52.748;13.452;2024-01-25T07:23:22;7.60;99.90
25332;DHT22;13284;52.748;13.452;2024-01-25T07:25:48;7.60;99.90
25332;DHT22;13284;52.748;13.452;2024-01-25T07:28:14;7.60;99.90
25332;DHT22;13284;52.748;13.452;2024-01-25T07:30:41;7.60;99.90
25332;DHT22;13284;52.748;13.452;2024-01-25T07:33:07;7.70;99.90
25332;DHT22;13284;52.748;13.452;2024-01-25T07:35:33;7.70;99.90
25332;DHT22;13284;52.748;13.452;2024-01-25T07:38:06;7.60;99.90
25332;DHT22;13284;52.748;13.452;2024-01-25T07:40:32;7.60;99.90
25332;DHT22;13284;52.748;13.452;2024-01-25T07:42:58;7.70;99.90
25332;DHT22;13284;52.748;13.452;2024-01-25T07:45:24;7.70;99.90
25332;DHT22;13284;52.748;13.452;2024-01-25T07:47:50;7.60;99.90
25332;DHT22;13284;52.748;13.452;2024-01-25T07:50:24;7.60;99.90
25332;DHT22;13284;52.748;13.452;2024-01-25T07:52:57;7.60;99.90
25332;DHT22;13284;52.748;13.452;2024-01-25T07:55:23;7.60;99.90
25332;DHT22;13284;52.748;13.452;2024-01-25T07:57:57;7.60;99.90
25332;DHT22;13284;52.748;13.452;2024-01-25T08:00:23;7.60;99.90
25332;DHT22;13284;52.748;13.452;2024-01-25T08:02:54;7.60;99.90
25332;DHT22;13284;52.748;13.452;2024-01-25T08:05:20;7.60;99.90
25332;DHT22;13284;52.748;13.452;2024-01-25T08:07:46;7.60;99.90
25332;DHT22;13284;52.748;13.452;2024-01-25T08:10:15;7.60;99.90
25332;DHT22;13284;52.748;13.452;2024-01-25T08:12:47;7.60;99.90
25332;DHT22;13284;52.748;13.452;2024-01-25T08:15:13;7.60;99.90
25332;DHT22;13284;52.748;13.452;2024-01-25T08:17:39;7.60;99.90
25332;DHT22;13284;52.748;13.452;2024-01-25T08:20:06;7.60;99.90
25332;DHT22;13284;52.748;13.452;2024-01-25T08:22:33;7.60;99.90
25332;DHT22;13284;52.748;13.452;2024-01-25T08:24:59;7.60;99.90
25332;DHT22;13284;52.748;13.452;2024-01-25T08:27:25;7.60;99.90
25332;DHT22;13284;52.748;13.452;2024-01-25T08:29:51;7.60;99.90
25332;DHT22;13284;52.748;13.452;2024-01-25T08:32:26;7.60;99.90
25332;DHT22;13284;52.748;13.452;2024-01-25T08:34:52;7.60;99.90
25332;DHT22;13284;52.748;13.452;2024-01-25T08:37:17;7.60;99.90
25332;DHT22;13284;52.748;13.452;2024-01-25T08:39:43;7.60;99.90
25332;DHT22;13284;52.748;13.452;2024-01-25T08:42:11;7.60;99.90
25332;DHT22;13284;52.748;13.452;2024-01-25T08:44:38;7.60;99.90
25332;DHT22;13284;52.748;13.452;2024-01-25T08:47:05;7.60;99.90
25332;DHT22;13284;52.748;13.452;2024-01-25T08:49:31;7.60;99.90
25332;DHT22;13284;52.748;13.452;2024-01-25T08:51:57;7.60;99.90
25332;DHT22;13284;52.748;13.452;2024-01-25T08:54:23;7.60;99.90
25332;DHT22;13284;52.748;13.452;2024-01-25T08:56:49;7.60;99.90
25332;DHT22;13284;52.748;13.452;2024-01-25T08:59:17;7.60;99.90
25332;DHT22;13284;52.748;13.452;2024-01-25T09:01:43;7.60;99.90
25332;DHT22;13284;52.748;13.452;2024-01-25T09:04:12;7.60;99.90
25332;DHT22;13284;52.748;13.452;2024-01-25T09:06:38;7.70;99.90
25332;DHT22;13284;52.748;13.452;2024-01-25T09:09:05;7.70;99.90
25332;DHT22;13284;52.748;13.452;2024-01-25T09:11:31;7.70;99.90
25332;DHT22;13284;52.748;13.452;2024-01-25T09:13:57;7.70;99.90
25332;DHT22;13284;52.748;13.452;2024-01-25T09:16:23;7.70;99.90
25332;DHT22;13284;52.748;13.452;2024-01-25T09:18:48;7.70;99.90
25332;DHT22;13284;52.748;13.452;2024-01-25T09:21:15;7.70;99.90
25332;DHT22;13284;52.748;13.452;2024-01-25T09:23:41;7.70;99.90
25332;DHT22;13284;52.748;13.452;2024-01-25T09:26:07;7.80;99.90
25332;DHT22;13284;52.748;13.452;2024-01-25T09:28:34;7.80;99.90
25332;DHT22;13284;52.748;13.452;2024-01-25T09:31:00;7.80;99.90
25332;DHT22;13284;52.748;13.452;2024-01-25T09:33:26;7.80;99.90
25332;DHT22;13284;52.748;13.452;2024-01-25T09:35:51;7.90;99.90
25332;DHT22;13284;52.748;13.452;2024-01-25T09:38:17;7.90;99.90
25332;DHT22;13284;52.748;13.452;2024-01-25T09:40:44;7.90;99.90
25332;DHT22;13284;52.748;13.452;2024-01-25T09:43:11;7.90;99.90
25332;DHT22;13284;52.748;13.452;2024-01-25T09:45:38;7.90;99.90
25332;DHT22;13284;52.748;13.452;2024-01-25T09:48:06;8.00;99.90
25332;DHT22;13284;52.748;13.452;2024-01-25T09:50:36;7.90;99.90
25332;DHT22;13284;52.748;13.452;2024-01-25T09:53:03;8.00;99.90
25332;DHT22;13284;52.748;13.452;2024-01-25T09:55:32;8.00;99.90
25332;DHT22;13284;52.748;13.452;2024-01-25T09:58:05;8.00;99.90
25332;DHT22;13284;52.748;13.452;2024-01-25T10:00:33;8.00;99.90
25332;DHT22;13284;52.748;13.452;2024-01-25T10:02:59;8.10;99.90
25332;DHT22;13284;52.748;13.452;2024-01-25T10:05:25;8.00;99.90
25332;DHT22;13284;52.748;13.452;2024-01-25T10:07:51;8.10;99.90
25332;DHT22;13284;52.748;13.452;2024-01-25T10:10:17;8.20;99.90
25332;DHT22;13284;52.748;13.452;2024-01-25T10:12:43;8.20;99.90
25332;DHT22;13284;52.748;13.452;2024-01-25T10:15:13;8.20;99.90
25332;DHT22;13284;52.748;13.452;2024-01-25T10:17:42;8.20;99.90
25332;DHT22;13284;52.748;13.452;2024-01-25T10:20:14;8.20;99.90
25332;DHT22;13284;52.748;13.452;2024-01-25T10:22:53;8.10;99.90
25332;DHT22;13284;52.748;13.452;2024-01-25T10:25:19;8.10;99.90
25332;DHT22;13284;52.748;13.452;2024-01-25T10:27:45;8.20;99.90
25332;DHT22;13284;52.748;13.452;2024-01-25T10:30:12;8.10;99.90
25332;DHT22;13284;52.748;13.452;2024-01-25T10:32:41;8.10;99.90
25332;DHT22;13284;52.748;13.452;2024-01-25T10:35:10;8.10;99.90
25332;DHT22;13284;52.748;13.452;2024-01-25T10:37:39;8.10;99.90
25332;DHT22;13284;52.748;13.452;2024-01-25T10:40:09;8.10;99.90
25332;DHT22;13284;52.748;13.452;2024-01-25T10:42:35;8.20;99.90
25332;DHT22;13284;52.748;13.452;2024-01-25T10:45:01;8.20;99.90
25332;DHT22;13284;52.748;13.452;2024-01-25T10:47:27;8.20;99.90
25332;DHT22;13284;52.748;13.452;2024-01-25T10:49:56;8.20;99.90
25332;DHT22;13284;52.748;13.452;2024-01-25T10:52:23;8.20;99.90
25332;DHT22;13284;52.748;13.452;2024-01-25T10:54:49;8.30;99.90
25332;DHT22;13284;52.748;13.452;2024-01-25T10:57:15;8.20;99.90
25332;DHT22;13284;52.748;13.452;2024-01-25T10:59:41;8.20;99.90
25332;DHT22;13284;52.748;13.452;2024-01-25T11:02:07;8.20;99.90
25332;DHT22;13284;52.748;13.452;2024-01-25T11:04:33;8.20;99.90
25332;DHT22;13284;52.748;13.452;2024-01-25T11:07:07;8.20;99.90
25332;DHT22;13284;52.748;13.452;2024-01-25T11:09:37;8.20;99.90
25332;DHT22;13284;52.748;13.452;2024-01-25T11:12:11;8.20;99.90
25332;DHT22;13284;52.748;13.452;2024-01-25T11:14:38;8.30;99.90
25332;DHT22;13284;52.748;13.452;2024-01-25T11:17:20;8.40;99.90
25332;DHT22;13284;52.748;13.452;2024-01-25T11:19:48;8.40;99.90
25332;DHT22;13284;52.748;13.452;2024-01-25T11:22:14;8.30;99.90
25332;DHT22;13284;52.748;13.452;2024-01-25T11:24:40;8.40;99.90
25332;DHT22;13284;52.748;13.452;2024-01-25T11:27:06;8.30;99.90
25332;DHT22;13284;52.748;13.452;2024-01-25T11:29:32;8.40;99.90
25332;DHT22;13284;52.748;13.452;2024-01-25T11:31:58;8.30;99.90
25332;DHT22;13284;52.748;13.452;2024-01-25T11:34:24;8.30;99.90
25332;DHT22;13284;52.748;13.452;2024-01-25T11:36:50;8.40;99.90
25332;DHT22;13284;52.748;13.452;2024-01-25T11:39:16;8.40;99.90
25332;DHT22;13284;52.748;13.452;2024-01-25T11:41:43;8.50;99.90
25332;DHT22;13284;52.748;13.452;2024-01-25T11:44:10;8.50;99.90
25332;DHT22;13284;52.748;13.452;2024-01-25T11:46:36;8.40;99.90
25332;DHT22;13284;52.748;13.452;2024-01-25T11:49:01;8.50;99.90
25332;DHT22;13284;52.748;13.452;2024-01-25T11:51:27;8.50;99.90
25332;DHT22;13284;52.748;13.452;2024-01-25T11:53:53;8.60;99.90
25332;DHT22;13284;52.748;13.452;2024-01-25T11:56:28;8.70;99.90
25332;DHT22;13284;52.748;13.452;2024-01-25T11:58:54;8.80;99.90
25332;DHT22;13284;52.748;13.452;2024-01-25T12:01:22;8.70;99.90
25332;DHT22;13284;52.748;13.452;2024-01-25T12:03:49;8.60;99.90
25332;DHT22;13284;52.748;13.452;2024-01-25T12:06:15;8.60;99.90
25332;DHT22;13284;52.748;13.452;2024-01-25T12:08:40;8.50;99.90
25332;DHT22;13284;52.748;13.452;2024-01-25T12:11:09;8.50;99.90
25332;DHT22;13284;52.748;13.452;2024-01-25T12:13:36;8.60;99.90
25332;DHT22;13284;52.748;13.452;2024-01-25T12:16:03;8.80;99.90
25332;DHT22;13284;52.748;13.452;2024-01-25T12:18:29;8.90;99.90
25332;DHT22;13284;52.748;13.452;2024-01-25T12:20:57;8.80;99.90
25332;DHT22;13284;52.748;13.452;2024-01-25T12:23:23;8.80;99.90
25332;DHT22;13284;52.748;13.452;2024-01-25T12:25:48;9.00;99.90
25332;DHT22;13284;52.748;13.452;2024-01-25T12:28:14;9.00;99.90
25332;DHT22;13284;52.748;13.452;2024-01-25T12:30:39;9.10;99.90
25332;DHT22;13284;52.748;13.452;2024-01-25T12:33:05;9.10;99.90
25332;DHT22;13284;52.748;13.452;2024-01-25T12:35:30;9.00;99.90
25332;DHT22;13284;52.748;13.452;2024-01-25T12:37:56;9.10;99.90
25332;DHT22;13284;52.748;13.452;2024-01-25T12:40:21;9.10;99.90
25332;DHT22;13284;52.748;13.452;2024-01-25T12:42:47;8.90;99.90
25332;DHT22;13284;52.748;13.452;2024-01-25T12:45:13;9.10;99.90
25332;DHT22;13284;52.748;13.452;2024-01-25T12:47:38;9.30;99.90
25332;DHT22;13284;52.748;13.452;2024-01-25T12:50:04;9.20;99.90
25332;DHT22;13284;52.748;13.452;2024-01-25T12:52:29;9.50;99.90
25332;DHT22;13284;52.748;13.452;2024-01-25T12:54:55;9.60;99.90
25332;DHT22;13284;52.748;13.452;2024-01-25T12:57:21;9.40;99.90
25332;DHT22;13284;52.748;13.452;2024-01-25T12:59:47;9.20;99.90
25332;DHT22;13284;52.748;13.452;2024-01-25T13:02:12;9.00;99.90
25332;DHT22;13284;52.748;13.452;2024-01-25T13:04:38;9.00;99.90
25332;DHT22;13284;52.748;13.452;2024-01-25T13:07:04;9.00;99.90
25332;DHT22;13284;52.748;13.452;2024-01-25T13:09:29;9.10;99.90
25332;DHT22;13284;52.748;13.452;2024-01-25T13:11:59;9.20;99.90
25332;DHT22;13284;52.748;13.452;2024-01-25T13:14:24;9.20;99.90
25332;DHT22;13284;52.748;13.452;2024-01-25T13:16:50;9.10;99.90
25332;DHT22;13284;52.748;13.452;2024-01-25T13:19:15;9.20;99.90
25332;DHT22;13284;52.748;13.452;2024-01-25T13:21:41;9.30;99.90
25332;DHT22;13284;52.748;13.452;2024-01-25T13:24:07;9.50;99.90
25332;DHT22;13284;52.748;13.452;2024-01-25T13:26:35;9.40;99.90
25332;DHT22;13284;52.748;13.452;2024-01-25T13:29:01;9.50;99.90
25332;DHT22;13284;52.748;13.452;2024-01-25T13:31:26;9.40;99.90
25332;DHT22;13284;52.748;13.452;2024-01-25T13:33:52;9.40;99.90
25332;DHT22;13284;52.748;13.452;2024-01-25T13:36:17;9.50;99.90
25332;DHT22;13284;52.748;13.452;2024-01-25T13:38:43;9.70;99.90
25332;DHT22;13284;52.748;13.452;2024-01-25T13:41:08;9.70;99.90
25332;DHT22;13284;52.748;13.452;2024-01-25T13:43:34;9.50;99.90
25332;DHT22;13284;52.748;13.452;2024-01-25T13:45:59;9.60;99.90
25332;DHT22;13284;52.748;13.452;2024-01-25T13:48:25;9.70;99.90
25332;DHT22;13284;52.748;13.452;2024-01-25T13:50:51;9.80;99.90
25332;DHT22;13284;52.748;13.452;2024-01-25T13:53:16;9.90;99.90
25332;DHT22;13284;52.748;13.452;2024-01-25T13:55:44;9.80;99.90
25332;DHT22;13284;52.748;13.452;2024-01-25T13:58:10;9.70;99.90
25332;DHT22;13284;52.748;13.452;2024-01-25T14:00:35;9.40;99.90
25332;DHT22;13284;52.748;13.452;2024-01-25T14:03:01;9.30;99.90
25332;DHT22;13284;52.748;13.452;2024-01-25T14:05:26;9.20;99.90
25332;DHT22;13284;52.748;13.452;2024-01-25T14:07:52;9.10;99.90
25332;DHT22;13284;52.748;13.452;2024-01-25T14:10:18;9.00;99.90
25332;DHT22;13284;52.748;13.452;2024-01-25T14:12:45;9.00;99.90
25332;DHT22;13284;52.748;13.452;2024-01-25T14:15:11;8.90;99.90
25332;DHT22;13284;52.748;13.452;2024-01-25T14:17:37;8.90;99.90
25332;DHT22;13284;52.748;13.452;2024-01-25T14:20:03;8.80;99.90
25332;DHT22;13284;52.748;13.452;2024-01-25T14:22:30;8.80;99.90
25332;DHT22;13284;52.748;13.452;2024-01-25T14:24:56;8.80;99.90
25332;DHT22;13284;52.748;13.452;2024-01-25T14:27:21;8.80;99.90
25332;DHT22;13284;52.748;13.452;2024-01-25T14:29:47;8.80;99.90
25332;DHT22;13284;52.748;13.452;2024-01-25T14:32:12;8.80;99.90
25332;DHT22;13284;52.748;13.452;2024-01-25T14:34:38;8.70;99.90
25332;DHT22;13284;52.748;13.452;2024-01-25T14:37:11;8.70;99.90
25332;DHT22;13284;52.748;13.452;2024-01-25T14:39:37;8.60;99.90
25332;DHT22;13284;52.748;13.452;2024-01-25T14:42:03;8.60;99.90
25332;DHT22;13284;52.748;13.452;2024-01-25T14:44:29;8.60;99.90
25332;DHT22;13284;52.748;13.452;2024-01-25T14:46:54;8.60;99.90
25332;DHT22;13284;52.748;13.452;2024-01-25T14:49:20;8.50;99.90
25332;DHT22;13284;52.748;13.452;2024-01-25T14:51:45;8.40;99.90
25332;DHT22;13284;52.748;13.452;2024-01-25T14:54:11;8.40;99.90
25332;DHT22;13284;52.748;13.452;2024-01-25T14:56:39;8.30;99.90
25332;DHT22;13284;52.748;13.452;2024-01-25T14:59:05;8.20;99.90
25332;DHT22;13284;52.748;13.452;2024-01-25T15:01:30;8.10;99.90
25332;DHT22;13284;52.748;13.452;2024-01-25T15:03:56;8.10;99.90
25332;DHT22;13284;52.748;13.452;2024-01-25T15:06:22;8.10;99.90
25332;DHT22;13284;52.748;13.452;2024-01-25T15:08:48;8.00;99.90
25332;DHT22;13284;52.748;13.452;2024-01-25T15:11:14;8.00;99.90
25332;DHT22;13284;52.748;13.452;2024-01-25T15:13:39;8.00;99.90
25332;DHT22;13284;52.748;13.452;2024-01-25T15:16:05;8.00;99.90
25332;DHT22;13284;52.748;13.452;2024-01-25T15:18:30;7.90;99.90
25332;DHT22;13284;52.748;13.452;2024-01-25T15:20:56;7.90;99.90
25332;DHT22;13284;52.748;13.452;2024-01-25T15:23:22;7.90;99.90